sensor_id;sensor_type;location;lat;lon;timestamp;temperature;humidity
3790;DHT22;1910;49.042;9.028;2023-05-10T00:01:28;12.90;99.90
3790;DHT22;1910;49.042;9.028;2023-05-10T00:18:29;12.80;99.90
3790;DHT22;1910;49.042;9.028;2023-05-10T00:50:06;12.60;99.90
3790;DHT22;1910;49.042;9.028;2023-05-10T01:02:16;12.50;99.90
3790;DHT22;1910;49.042;9.028;2023-05-10T01:04:43;12.40;99.90
3790;DHT22;1910;49.042;9.028;2023-05-10T01:12:02;12.40;99.90
3790;DHT22;1910;49.042;9.028;2023-05-10T01:19:25;12.30;99.90
3790;DHT22;1910;49.042;9.028;2023-05-10T01:35:03;12.30;99.90
3790;DHT22;1910;49.042;9.028;2023-05-10T01:37:46;12.30;99.90
3790;DHT22;1910;49.042;9.028;2023-05-10T01:40:23;12.30;99.90
3790;DHT22;1910;49.042;9.028;2023-05-10T01:42:54;12.30;99.90
3790;DHT22;1910;49.042;9.028;2023-05-10T01:45:30;12.20;99.90
3790;DHT22;1910;49.042;9.028;2023-05-10T01:48:09;12.30;99.90
3790;DHT22;1910;49.042;9.028;2023-05-10T01:50:37;12.30;99.90
3790;DHT22;1910;49.042;9.028;2023-05-10T01:53:07;12.30;99.90
3790;DHT22;1910;49.042;9.028;2023-05-10T01:55:42;12.30;99.90
3790;DHT22;1910;49.042;9.028;2023-05-10T01:58:21;12.30;99.90
3790;DHT22;1910;49.042;9.028;2023-05-10T02:00:49;12.40;99.90
3790;DHT22;1910;49.042;9.028;2023-05-10T02:03:16;12.40;99.90
3790;DHT22;1910;49.042;9.028;2023-05-10T02:05:44;12.40;99.90
3790;DHT22;1910;49.042;9.028;2023-05-10T02:10:39;12.40;99.90
3790;DHT22;1910;49.042;9.028;2023-05-10T02:13:06;12.40;99.90
3790;DHT22;1910;49.042;9.028;2023-05-10T02:15:32;12.30;99.90
3790;DHT22;1910;49.042;9.028;2023-05-10T02:20:25;12.20;99.90
3790;DHT22;1910;49.042;9.028;2023-05-10T02:22:53;12.20;99.90
3790;DHT22;1910;49.042;9.028;2023-05-10T02:25:20;12.20;99.90
3790;DHT22;1910;49.042;9.028;2023-05-10T02:27:47;12.20;99.90
3790;DHT22;1910;49.042;9.028;2023-05-10T02:30:13;12.20;99.90
3790;DHT22;1910;49.042;9.028;2023-05-10T02:35:07;12.30;99.90
3790;DHT22;1910;49.042;9.028;2023-05-10T02:37:34;12.30;99.90
3790;DHT22;1910;49.042;9.028;2023-05-10T02:40:01;12.30;99.90
3790;DHT22;1910;49.042;9.028;2023-05-10T02:42:29;12.40;99.90
3790;DHT22;1910;49.042;9.028;2023-05-10T02:45:01;12.40;99.90
3790;DHT22;1910;49.042;9.028;2023-05-10T02:47:28;12.50;99.90
3790;DHT22;1910;49.042;9.028;2023-05-10T02:52:24;12.50;99.90
3790;DHT22;1910;49.042;9.028;2023-05-10T02:54:54;12.50;99.90
3790;DHT22;1910;49.042;9.028;2023-05-10T02:57:26;12.50;99.90
3790;DHT22;1910;49.042;9.028;2023-05-10T03:12:37;12.50;99.90
3790;DHT22;1910;49.042;9.028;2023-05-10T03:15:26;12.60;99.90
3790;DHT22;1910;49.042;9.028;2023-05-10T03:18:21;12.60;99.90
3790;DHT22;1910;49.042;9.028;2023-05-10T03:20:49;12.60;99.90
3790;DHT22;1910;49.042;9.028;2023-05-10T03:25:44;12.60;99.90
3790;DHT22;1910;49.042;9.028;2023-05-10T03:28:14;12.60;99.90
3790;DHT22;1910;49.042;9.028;2023-05-10T03:30:41;12.60;99.90
3790;DHT22;1910;49.042;9.028;2023-05-10T03:35:34;12.30;99.90
3790;DHT22;1910;49.042;9.028;2023-05-10T03:40:26;12.50;99.90
3790;DHT22;1910;49.042;9.028;2023-05-10T03:55:05;12.40;99.90
3790;DHT22;1910;49.042;9.028;2023-05-10T05:05:43;12.60;99.90
3790;DHT22;1910;49.042;9.028;2023-05-10T05:47:09;13.90;99.90
3790;DHT22;1910;49.042;9.028;2023-05-10T05:52:02;13.70;99.90
3790;DHT22;1910;49.042;9.028;2023-05-10T05:56:55;13.60;99.90
3790;DHT22;1910;49.042;9.028;2023-05-10T06:04:13;13.70;99.90
3790;DHT22;1910;49.042;9.028;2023-05-10T06:48:02;13.60;99.90
3790;DHT22;1910;49.042;9.028;2023-05-10T07:00:13;13.90;99.90
3790;DHT22;1910;49.042;9.028;2023-05-10T07:12:24;13.80;99.90
3790;DHT22;1910;49.042;9.028;2023-05-10T07:51:21;15.00;99.90
3790;DHT22;1910;49.042;9.028;2023-05-10T07:56:27;15.30;99.90
3790;DHT22;1910;49.042;9.028;2023-05-10T08:06:14;15.10;99.90
3790;DHT22;1910;49.042;9.028;2023-05-10T08:35:28;14.00;99.90
3790;DHT22;1910;49.042;9.028;2023-05-10T08:43:02;13.50;99.90
3790;DHT22;1910;49.042;9.028;2023-05-10T08:45:32;13.60;99.90
3790;DHT22;1910;49.042;9.028;2023-05-10T08:48:01;13.80;99.90
3790;DHT22;1910;49.042;9.028;2023-05-10T08:52:55;14.60;99.90
3790;DHT22;1910;49.042;9.028;2023-05-10T08:55:23;14.90;99.90
3790;DHT22;1910;49.042;9.028;2023-05-10T09:00:16;15.30;99.90
3790;DHT22;1910;49.042;9.028;2023-05-10T09:10:04;14.80;99.90
3790;DHT22;1910;49.042;9.028;2023-05-10T09:17:25;14.40;99.90
3790;DHT22;1910;49.042;9.028;2023-05-10T09:19:57;14.40;99.90
3790;DHT22;1910;49.042;9.028;2023-05-10T09:25:12;14.70;99.90
3790;DHT22;1910;49.042;9.028;2023-05-10T09:27:39;15.20;99.90
3790;DHT22;1910;49.042;9.028;2023-05-10T09:30:06;15.60;99.90
3790;DHT22;1910;49.042;9.028;2023-05-10T09:32:41;16.30;99.90
3790;DHT22;1910;49.042;9.028;2023-05-10T09:35:18;17.00;99.90
3790;DHT22;1910;49.042;9.028;2023-05-10T09:37:46;17.40;99.90
3790;DHT22;1910;49.042;9.028;2023-05-10T09:40:17;18.70;99.90
3790;DHT22;1910;49.042;9.028;2023-05-10T09:50:09;18.10;99.90
3790;DHT22;1910;49.042;9.028;2023-05-10T09:52:56;17.20;99.90
3790;DHT22;1910;49.042;9.028;2023-05-10T09:55:44;15.90;99.90
3790;DHT22;1910;49.042;9.028;2023-05-10T10:00:47;15.60;99.90
3790;DHT22;1910;49.042;9.028;2023-05-10T10:03:19;14.60;99.90
3790;DHT22;1910;49.042;9.028;2023-05-10T10:05:46;14.20;99.90
3790;DHT22;1910;49.042;9.028;2023-05-10T10:15:33;14.20;99.90
3790;DHT22;1910;49.042;9.028;2023-05-10T10:20:26;14.60;99.90
3790;DHT22;1910;49.042;9.028;2023-05-10T10:25:19;14.70;99.90
3790;DHT22;1910;49.042;9.028;2023-05-10T10:30:42;14.60;99.90
3790;DHT22;1910;49.042;9.028;2023-05-10T10:33:30;14.60;99.90
3790;DHT22;1910;49.042;9.028;2023-05-10T10:36:00;14.90;99.90
3790;DHT22;1910;49.042;9.028;2023-05-10T10:41:36;14.60;99.90
3790;DHT22;1910;49.042;9.028;2023-05-10T10:44:24;14.80;99.90
3790;DHT22;1910;49.042;9.028;2023-05-10T10:52:26;14.20;99.90
3790;DHT22;1910;49.042;9.028;2023-05-10T10:55:19;14.50;99.90
3790;DHT22;1910;49.042;9.028;2023-05-10T10:57:50;14.50;99.90
3790;DHT22;1910;49.042;9.028;2023-05-10T11:00:27;15.10;99.90
3790;DHT22;1910;49.042;9.028;2023-05-10T11:03:05;15.20;99.90
3790;DHT22;1910;49.042;9.028;2023-05-10T11:05:44;15.20;99.90
3790;DHT22;1910;49.042;9.028;2023-05-10T11:13:06;16.50;99.90
3790;DHT22;1910;49.042;9.028;2023-05-10T11:15:35;16.60;99.90
3790;DHT22;1910;49.042;9.028;2023-05-10T11:18:30;16.70;99.90
3790;DHT22;1910;49.042;9.028;2023-05-10T11:21:02;17.30;99.90
3790;DHT22;1910;49.042;9.028;2023-05-10T11:28:46;17.50;99.90
3790;DHT22;1910;49.042;9.028;2023-05-10T11:31:19;16.80;99.90
3790;DHT22;1910;49.042;9.028;2023-05-10T11:33:47;17.00;99.90
3790;DHT22;1910;49.042;9.028;2023-05-10T11:36:19;16.80;99.90
3790;DHT22;1910;49.042;9.028;2023-05-10T11:38:45;17.00;99.90
3790;DHT22;1910;49.042;9.028;2023-05-10T11:43:41;16.60;99.90
3790;DHT22;1910;49.042;9.028;2023-05-10T11:46:12;16.50;99.90
3790;DHT22;1910;49.042;9.028;2023-05-10T11:48:42;16.70;99.90
3790;DHT22;1910;49.042;9.028;2023-05-10T11:51:08;17.30;99.90
3790;DHT22;1910;49.042;9.028;2023-05-10T11:56:10;16.80;99.90
3790;DHT22;1910;49.042;9.028;2023-05-10T11:58:37;16.60;99.90
3790;DHT22;1910;49.042;9.028;2023-05-10T12:01:05;16.90;99.90
3790;DHT22;1910;49.042;9.028;2023-05-10T12:05:57;18.10;99.90
3790;DHT22;1910;49.042;9.028;2023-05-10T12:08:25;17.00;99.90
3790;DHT22;1910;49.042;9.028;2023-05-10T12:18:13;17.40;99.90
3790;DHT22;1910;49.042;9.028;2023-05-10T12:20:39;17.40;99.90
3790;DHT22;1910;49.042;9.028;2023-05-10T12:23:08;17.80;99.90
3790;DHT22;1910;49.042;9.028;2023-05-10T12:25:36;18.00;99.90
3790;DHT22;1910;49.042;9.028;2023-05-10T12:28:07;17.90;99.90
3790;DHT22;1910;49.042;9.028;2023-05-10T12:30:35;18.40;99.90
3790;DHT22;1910;49.042;9.028;2023-05-10T12:33:02;17.90;99.90
3790;DHT22;1910;49.042;9.028;2023-05-10T12:40:25;18.40;99.90
3790;DHT22;1910;49.042;9.028;2023-05-10T12:45:18;16.80;99.90
3790;DHT22;1910;49.042;9.028;2023-05-10T12:47:43;16.80;99.90
3790;DHT22;1910;49.042;9.028;2023-05-10T12:50:09;16.70;99.90
3790;DHT22;1910;49.042;9.028;2023-05-10T12:52:35;16.10;99.90
3790;DHT22;1910;49.042;9.028;2023-05-10T12:55:01;16.20;99.90
3790;DHT22;1910;49.042;9.028;2023-05-10T13:16:58;17.30;99.90
3790;DHT22;1910;49.042;9.028;2023-05-10T14:27:38;17.00;99.90
3790;DHT22;1910;49.042;9.028;2023-05-10T14:30:04;17.00;99.90
3790;DHT22;1910;49.042;9.028;2023-05-10T15:09:02;17.40;99.90
3790;DHT22;1910;49.042;9.028;2023-05-10T15:21:15;17.40;99.90
3790;DHT22;1910;49.042;9.028;2023-05-10T15:48:12;17.70;99.90
3790;DHT22;1910;49.042;9.028;2023-05-10T15:53:15;17.00;99.90
3790;DHT22;1910;49.042;9.028;2023-05-10T15:55:43;17.30;99.90
3790;DHT22;1910;49.042;9.028;2023-05-10T16:03:49;16.70;99.90
3790;DHT22;1910;49.042;9.028;2023-05-10T16:06:15;16.90;99.90
3790;DHT22;1910;49.042;9.028;2023-05-10T16:08:40;17.00;99.90
3790;DHT22;1910;49.042;9.028;2023-05-10T16:13:33;17.20;99.90
3790;DHT22;1910;49.042;9.028;2023-05-10T16:15:59;17.10;99.90
3790;DHT22;1910;49.042;9.028;2023-05-10T16:20:51;17.30;99.90
3790;DHT22;1910;49.042;9.028;2023-05-10T16:28:09;17.00;99.90
3790;DHT22;1910;49.042;9.028;2023-05-10T16:37:54;16.90;99.90
3790;DHT22;1910;49.042;9.028;2023-05-10T16:40:20;16.70;99.90
3790;DHT22;1910;49.042;9.028;2023-05-10T16:42:46;16.70;99.90
3790;DHT22;1910;49.042;9.028;2023-05-10T16:45:11;16.80;99.90
3790;DHT22;1910;49.042;9.028;2023-05-10T16:47:38;16.50;99.90
3790;DHT22;1910;49.042;9.028;2023-05-10T16:50:06;16.50;99.90
3790;DHT22;1910;49.042;9.028;2023-05-10T16:52:32;16.20;99.90
3790;DHT22;1910;49.042;9.028;2023-05-10T16:54:58;16.00;99.90
3790;DHT22;1910;49.042;9.028;2023-05-10T16:57:24;16.00;99.90
3790;DHT22;1910;49.042;9.028;2023-05-10T16:59:49;16.00;99.90
3790;DHT22;1910;49.042;9.028;2023-05-10T17:09:40;16.00;99.90
3790;DHT22;1910;49.042;9.028;2023-05-10T17:12:06;15.70;99.90
3790;DHT22;1910;49.042;9.028;2023-05-10T17:14:32;15.70;99.90
3790;DHT22;1910;49.042;9.028;2023-05-10T17:16:58;15.60;99.90
3790;DHT22;1910;49.042;9.028;2023-05-10T17:19:24;15.60;99.90
3790;DHT22;1910;49.042;9.028;2023-05-10T17:21:50;15.50;99.90
3790;DHT22;1910;49.042;9.028;2023-05-10T17:24:15;15.60;99.90
3790;DHT22;1910;49.042;9.028;2023-05-10T17:26:41;15.50;99.90
3790;DHT22;1910;49.042;9.028;2023-05-10T17:29:07;15.50;99.90
3790;DHT22;1910;49.042;9.028;2023-05-10T17:31:32;15.50;99.90
3790;DHT22;1910;49.042;9.028;2023-05-10T17:33:58;15.40;99.90
3790;DHT22;1910;49.042;9.028;2023-05-10T17:41:17;15.50;99.90
3790;DHT22;1910;49.042;9.028;2023-05-10T17:46:09;15.70;99.90
3790;DHT22;1910;49.042;9.028;2023-05-10T17:51:02;15.40;99.90
3790;DHT22;1910;49.042;9.028;2023-05-10T17:53:28;15.50;99.90
3790;DHT22;1910;49.042;9.028;2023-05-10T17:55:54;15.30;99.90
3790;DHT22;1910;49.042;9.028;2023-05-10T17:58:23;15.30;99.90
3790;DHT22;1910;49.042;9.028;2023-05-10T18:00:50;15.10;99.90
3790;DHT22;1910;49.042;9.028;2023-05-10T18:03:15;15.10;99.90
3790;DHT22;1910;49.042;9.028;2023-05-10T18:05:41;15.00;99.90
3790;DHT22;1910;49.042;9.028;2023-05-10T18:08:07;15.00;99.90
3790;DHT22;1910;49.042;9.028;2023-05-10T18:10:33;14.90;99.90
3790;DHT22;1910;49.042;9.028;2023-05-10T18:15:26;14.70;99.90
3790;DHT22;1910;49.042;9.028;2023-05-10T18:17:52;14.70;99.90
3790;DHT22;1910;49.042;9.028;2023-05-10T18:20:18;14.70;99.90
3790;DHT22;1910;49.042;9.028;2023-05-10T18:22:43;14.60;99.90
3790;DHT22;1910;49.042;9.028;2023-05-10T18:25:09;14.50;99.90
3790;DHT22;1910;49.042;9.028;2023-05-10T18:27:35;14.40;99.90
3790;DHT22;1910;49.042;9.028;2023-05-10T18:30:00;14.30;99.90
3790;DHT22;1910;49.042;9.028;2023-05-10T18:32:26;14.30;99.90
3790;DHT22;1910;49.042;9.028;2023-05-10T18:34:52;14.20;99.90
3790;DHT22;1910;49.042;9.028;2023-05-10T18:37:17;14.10;99.90
3790;DHT22;1910;49.042;9.028;2023-05-10T18:39:43;14.00;99.90
3790;DHT22;1910;49.042;9.028;2023-05-10T18:42:09;13.90;99.90
3790;DHT22;1910;49.042;9.028;2023-05-10T18:44:34;13.90;99.90
3790;DHT22;1910;49.042;9.028;2023-05-10T18:47:00;13.90;99.90
3790;DHT22;1910;49.042;9.028;2023-05-10T18:49:26;13.90;99.90
3790;DHT22;1910;49.042;9.028;2023-05-10T18:51:53;13.80;99.90
3790;DHT22;1910;49.042;9.028;2023-05-10T18:54:19;13.70;99.90
3790;DHT22;1910;49.042;9.028;2023-05-10T18:56:45;13.70;99.90
3790;DHT22;1910;49.042;9.028;2023-05-10T18:59:11;13.60;99.90
3790;DHT22;1910;49.042;9.028;2023-05-10T19:01:37;13.50;99.90
3790;DHT22;1910;49.042;9.028;2023-05-10T19:04:03;13.40;99.90
3790;DHT22;1910;49.042;9.028;2023-05-10T19:06:28;13.40;99.90
3790;DHT22;1910;49.042;9.028;2023-05-10T19:08:54;13.30;99.90
3790;DHT22;1910;49.042;9.028;2023-05-10T19:11:19;13.20;99.90
3790;DHT22;1910;49.042;9.028;2023-05-10T19:13:46;13.10;99.90
3790;DHT22;1910;49.042;9.028;2023-05-10T19:16:15;13.10;99.90
3790;DHT22;1910;49.042;9.028;2023-05-10T19:18:42;13.00;99.90
3790;DHT22;1910;49.042;9.028;2023-05-10T19:21:08;13.00;99.90
3790;DHT22;1910;49.042;9.028;2023-05-10T19:23:38;13.00;99.90
3790;DHT22;1910;49.042;9.028;2023-05-10T19:26:07;12.90;99.90
3790;DHT22;1910;49.042;9.028;2023-05-10T19:28:32;12.90;99.90
3790;DHT22;1910;49.042;9.028;2023-05-10T19:30:58;12.80;99.90
3790;DHT22;1910;49.042;9.028;2023-05-10T19:33:24;12.70;99.90
3790;DHT22;1910;49.042;9.028;2023-05-10T19:35:50;12.60;99.90
3790;DHT22;1910;49.042;9.028;2023-05-10T19:38:21;12.60;99.90
3790;DHT22;1910;49.042;9.028;2023-05-10T19:40:48;12.60;99.90
3790;DHT22;1910;49.042;9.028;2023-05-10T19:43:14;12.60;99.90
3790;DHT22;1910;49.042;9.028;2023-05-10T19:45:40;12.60;99.90
3790;DHT22;1910;49.042;9.028;2023-05-10T19:48:06;12.60;99.90
3790;DHT22;1910;49.042;9.028;2023-05-10T19:50:32;12.60;99.90
3790;DHT22;1910;49.042;9.028;2023-05-10T19:52:57;12.60;99.90
3790;DHT22;1910;49.042;9.028;2023-05-10T19:55:28;12.60;99.90
3790;DHT22;1910;49.042;9.028;2023-05-10T19:57:54;12.60;99.90
3790;DHT22;1910;49.042;9.028;2023-05-10T20:00:20;12.50;99.90
3790;DHT22;1910;49.042;9.028;2023-05-10T20:05:12;12.60;99.90
3790;DHT22;1910;49.042;9.028;2023-05-10T20:07:38;12.50;99.90
3790;DHT22;1910;49.042;9.028;2023-05-10T20:10:03;12.60;99.90
3790;DHT22;1910;49.042;9.028;2023-05-10T20:12:29;12.50;99.90
3790;DHT22;1910;49.042;9.028;2023-05-10T20:14:54;12.50;99.90
3790;DHT22;1910;49.042;9.028;2023-05-10T20:17:20;12.40;99.90
3790;DHT22;1910;49.042;9.028;2023-05-10T20:19:46;12.40;99.90
3790;DHT22;1910;49.042;9.028;2023-05-10T20:22:11;12.30;99.90
3790;DHT22;1910;49.042;9.028;2023-05-10T20:24:37;12.30;99.90
3790;DHT22;1910;49.042;9.028;2023-05-10T20:29:29;12.30;99.90
3790;DHT22;1910;49.042;9.028;2023-05-10T20:31:54;12.30;99.90
3790;DHT22;1910;49.042;9.028;2023-05-10T20:34:20;12.30;99.90
3790;DHT22;1910;49.042;9.028;2023-05-10T20:36:46;12.20;99.90
3790;DHT22;1910;49.042;9.028;2023-05-10T20:39:11;12.20;99.90
3790;DHT22;1910;49.042;9.028;2023-05-10T20:41:37;12.20;99.90
3790;DHT22;1910;49.042;9.028;2023-05-10T20:44:03;12.20;99.90
3790;DHT22;1910;49.042;9.028;2023-05-10T20:46:30;12.10;99.90
3790;DHT22;1910;49.042;9.028;2023-05-10T20:48:56;12.10;99.90
3790;DHT22;1910;49.042;9.028;2023-05-10T20:51:21;12.10;99.90
3790;DHT22;1910;49.042;9.028;2023-05-10T20:53:47;12.10;99.90
3790;DHT22;1910;49.042;9.028;2023-05-10T20:56:12;12.10;99.90
3790;DHT22;1910;49.042;9.028;2023-05-10T20:58:38;12.00;99.90
3790;DHT22;1910;49.042;9.028;2023-05-10T21:01:03;12.10;99.90
3790;DHT22;1910;49.042;9.028;2023-05-10T21:03:29;12.10;99.90
3790;DHT22;1910;49.042;9.028;2023-05-10T21:05:54;12.00;99.90
3790;DHT22;1910;49.042;9.028;2023-05-10T21:08:20;12.00;99.90
3790;DHT22;1910;49.042;9.028;2023-05-10T21:10:46;12.00;99.90
3790;DHT22;1910;49.042;9.028;2023-05-10T21:13:11;12.00;99.90
3790;DHT22;1910;49.042;9.028;2023-05-10T21:15:37;12.00;99.90
3790;DHT22;1910;49.042;9.028;2023-05-10T21:18:02;11.90;99.90
3790;DHT22;1910;49.042;9.028;2023-05-10T21:20:29;11.90;99.90
3790;DHT22;1910;49.042;9.028;2023-05-10T21:22:54;11.90;99.90
3790;DHT22;1910;49.042;9.028;2023-05-10T21:25:21;11.90;99.90
3790;DHT22;1910;49.042;9.028;2023-05-10T21:27:47;11.90;99.90
3790;DHT22;1910;49.042;9.028;2023-05-10T21:30:13;11.90;99.90
3790;DHT22;1910;49.042;9.028;2023-05-10T21:32:39;11.90;99.90
3790;DHT22;1910;49.042;9.028;2023-05-10T21:35:05;11.90;99.90
3790;DHT22;1910;49.042;9.028;2023-05-10T21:37:31;12.00;99.90
3790;DHT22;1910;49.042;9.028;2023-05-10T21:39:56;12.00;99.90
3790;DHT22;1910;49.042;9.028;2023-05-10T21:42:22;12.00;99.90
3790;DHT22;1910;49.042;9.028;2023-05-10T21:44:47;12.00;99.90
3790;DHT22;1910;49.042;9.028;2023-05-10T21:47:13;11.90;99.90
3790;DHT22;1910;49.042;9.028;2023-05-10T21:49:38;11.90;99.90
3790;DHT22;1910;49.042;9.028;2023-05-10T21:52:04;11.90;99.90
3790;DHT22;1910;49.042;9.028;2023-05-10T21:54:30;11.90;99.90
3790;DHT22;1910;49.042;9.028;2023-05-10T21:56:56;11.90;99.90
3790;DHT22;1910;49.042;9.028;2023-05-10T21:59:22;12.00;99.90
3790;DHT22;1910;49.042;9.028;2023-05-10T22:01:47;12.00;99.90
3790;DHT22;1910;49.042;9.028;2023-05-10T22:04:13;12.00;99.90
3790;DHT22;1910;49.042;9.028;2023-05-10T22:06:39;11.90;99.90
3790;DHT22;1910;49.042;9.028;2023-05-10T22:09:04;11.90;99.90
3790;DHT22;1910;49.042;9.028;2023-05-10T22:11:30;11.90;99.90
3790;DHT22;1910;49.042;9.028;2023-05-10T22:13:56;11.90;99.90
3790;DHT22;1910;49.042;9.028;2023-05-10T22:16:22;11.90;99.90
3790;DHT22;1910;49.042;9.028;2023-05-10T22:18:47;11.90;99.90
3790;DHT22;1910;49.042;9.028;2023-05-10T22:21:13;12.00;99.90
3790;DHT22;1910;49.042;9.028;2023-05-10T22:23:38;11.90;99.90
3790;DHT22;1910;49.042;9.028;2023-05-10T22:26:04;11.90;99.90
3790;DHT22;1910;49.042;9.028;2023-05-10T22:28:29;11.90;99.90
3790;DHT22;1910;49.042;9.028;2023-05-10T22:30:55;11.90;99.90
3790;DHT22;1910;49.042;9.028;2023-05-10T22:33:20;11.90;99.90
3790;DHT22;1910;49.042;9.028;2023-05-10T22:35:46;12.00;99.90
3790;DHT22;1910;49.042;9.028;2023-05-10T22:38:12;11.90;99.90
3790;DHT22;1910;49.042;9.028;2023-05-10T22:40:37;11.90;99.90
3790;DHT22;1910;49.042;9.028;2023-05-10T22:43:03;11.90;99.90
3790;DHT22;1910;49.042;9.028;2023-05-10T22:45:29;11.90;99.90
3790;DHT22;1910;49.042;9.028;2023-05-10T22:47:54;11.90;99.90
3790;DHT22;1910;49.042;9.028;2023-05-10T22:50:20;11.90;99.90
3790;DHT22;1910;49.042;9.028;2023-05-10T22:52:46;11.90;99.90
3790;DHT22;1910;49.042;9.028;2023-05-10T22:55:11;11.80;99.90
3790;DHT22;1910;49.042;9.028;2023-05-10T22:57:37;11.80;99.90
3790;DHT22;1910;49.042;9.028;2023-05-10T23:00:03;11.80;99.90
3790;DHT22;1910;49.042;9.028;2023-05-10T23:02:29;11.80;99.90
3790;DHT22;1910;49.042;9.028;2023-05-10T23:04:55;11.80;99.90
3790;DHT22;1910;49.042;9.028;2023-05-10T23:07:21;11.80;99.90
3790;DHT22;1910;49.042;9.028;2023-05-10T23:09:46;11.80;99.90
3790;DHT22;1910;49.042;9.028;2023-05-10T23:12:13;11.80;99.90
3790;DHT22;1910;49.042;9.028;2023-05-10T23:14:39;11.80;99.90
3790;DHT22;1910;49.042;9.028;2023-05-10T23:17:06;11.80;99.90
3790;DHT22;1910;49.042;9.028;2023-05-10T23:19:31;11.70;99.90
3790;DHT22;1910;49.042;9.028;2023-05-10T23:21:57;11.70;99.90
3790;DHT22;1910;49.042;9.028;2023-05-10T23:24:24;11.70;99.90
3790;DHT22;1910;49.042;9.028;2023-05-10T23:26:49;11.70;99.90
3790;DHT22;1910;49.042;9.028;2023-05-10T23:29:15;11.70;99.90
3790;DHT22;1910;49.042;9.028;2023-05-10T23:31:41;11.70;99.90
3790;DHT22;1910;49.042;9.028;2023-05-10T23:34:13;11.70;99.90
3790;DHT22;1910;49.042;9.028;2023-05-10T23:36:38;11.60;99.90
3790;DHT22;1910;49.042;9.028;2023-05-10T23:39:04;11.60;99.90
3790;DHT22;1910;49.042;9.028;2023-05-10T23:41:30;11.70;99.90
3790;DHT22;1910;49.042;9.028;2023-05-10T23:43:56;11.60;99.90
3790;DHT22;1910;49.042;9.028;2023-05-10T23:46:22;11.60;99.90
3790;DHT22;1910;49.042;9.028;2023-05-10T23:48:47;11.70;99.90
3790;DHT22;1910;49.042;9.028;2023-05-10T23:51:13;11.70;99.90
3790;DHT22;1910;49.042;9.028;2023-05-10T23:53:39;11.70;99.90
3790;DHT22;1910;49.042;9.028;2023-05-10T23:56:04;11.60;99.90
3790;DHT22;1910;49.042;9.028;2023-05-10T23:58:30;11.60;99.90
